Time;durP1;ratioP1;P1;durP2;ratioP2;P2;SDS_P1;SDS_P2;PMS_P1;PMS_P2;Temp;Humidity;BMP_temperature;BMP_pressure;BME280_temperature;BME280_humidity;BME280_pressure;Samples;Min_cycle;Max_cycle;Signal;HPM_P1;HPM_P2
2023/08/22 00:00:48;;;;;;;13.10;8.90;;;;;;;;;;5013966;28;20074;-76
2023/08/22 00:03:14;;;;;;;12.45;8.38;;;;;;;;;;5019571;28;20497;-76
2023/08/22 00:05:41;;;;;;;11.73;8.30;;;;;;;;;;4998999;28;20049;-75
2023/08/22 00:08:07;;;;;;;10.13;8.75;;;;;;;;;;5002124;28;20091;-76
2023/08/22 00:10:33;;;;;;;9.35;7.43;;;;;;;;;;5033616;28;20170;-75
2023/08/22 00:13:00;;;;;;;13.75;8.65;;;;;;;;;;5014480;28;20122;-82
2023/08/22 00:15:26;;;;;;;11.63;9.55;;;;;;;;;;5016291;28;20036;-82
2023/08/22 00:17:52;;;;;;;11.45;9.30;;;;;;;;;;5015110;28;20131;-83
2023/08/22 00:20:18;;;;;;;15.40;9.77;;;;;;;;;;5034170;28;20045;-83
2023/08/22 00:22:45;;;;;;;11.25;9.45;;;;;;;;;;5013133;28;20068;-82
2023/08/22 00:25:11;;;;;;;10.55;8.32;;;;;;;;;;5015196;28;20045;-82
2023/08/22 00:27:37;;;;;;;15.27;10.15;;;;;;;;;;5031230;28;20496;-83
2023/08/22 00:30:04;;;;;;;18.40;11.25;;;;;;;;;;5012913;28;20098;-83
2023/08/22 00:32:30;;;;;;;14.63;11.00;;;;;;;;;;5013661;28;20040;-83
2023/08/22 00:34:56;;;;;;;13.52;10.98;;;;;;;;;;5031589;28;20048;-83
2023/08/22 00:37:22;;;;;;;12.88;11.15;;;;;;;;;;5012336;28;20072;-82
2023/08/22 00:39:49;;;;;;;13.43;10.85;;;;;;;;;;4998363;28;20131;-83
2023/08/22 00:42:15;;;;;;;18.35;11.40;;;;;;;;;;5014049;28;20083;-83
2023/08/22 00:44:41;;;;;;;13.38;11.05;;;;;;;;;;5014683;28;20489;-83
2023/08/22 00:47:07;;;;;;;15.13;10.93;;;;;;;;;;4996750;28;20045;-83
2023/08/22 00:49:34;;;;;;;16.88;11.93;;;;;;;;;;5032130;28;20053;-82
2023/08/22 00:52:02;;;;;;;16.35;11.88;;;;;;;;;;5013636;28;20041;-83
2023/08/22 00:54:29;;;;;;;17.90;11.27;;;;;;;;;;5031887;28;20194;-83
2023/08/22 00:56:55;;;;;;;15.27;11.38;;;;;;;;;;5002934;28;20049;-83
2023/08/22 00:59:22;;;;;;;15.10;11.07;;;;;;;;;;5018289;28;20040;-83
2023/08/22 01:01:48;;;;;;;16.55;10.70;;;;;;;;;;5019404;28;20083;-83
2023/08/22 01:04:15;;;;;;;17.73;10.63;;;;;;;;;;5017716;28;20063;-82
2023/08/22 01:07:00;;;;;;;13.82;11.18;;;;;;;;;;5035074;28;20124;-82
2023/08/22 01:09:28;;;;;;;20.92;11.70;;;;;;;;;;5017199;28;20048;-82
2023/08/22 01:11:58;;;;;;;19.42;12.90;;;;;;;;;;5016643;28;20076;-83
2023/08/22 01:14:27;;;;;;;16.83;12.10;;;;;;;;;;5004486;28;20094;-82
2023/08/22 01:16:53;;;;;;;14.27;10.88;;;;;;;;;;5014586;28;20504;-82
2023/08/22 01:19:20;;;;;;;16.33;10.85;;;;;;;;;;5015505;28;20091;-82
2023/08/22 01:21:52;;;;;;;13.20;10.15;;;;;;;;;;5034485;28;20381;-82
2023/08/22 01:24:18;;;;;;;17.02;12.73;;;;;;;;;;5035802;28;20054;-82
2023/08/22 01:26:45;;;;;;;18.05;12.52;;;;;;;;;;5021143;28;20179;-82
2023/08/22 01:29:13;;;;;;;19.55;11.73;;;;;;;;;;5037514;28;20049;-82
2023/08/22 01:31:48;;;;;;;16.60;12.90;;;;;;;;;;5019059;28;20044;-83
2023/08/22 01:34:17;;;;;;;18.42;12.95;;;;;;;;;;5010476;28;20156;-83
2023/08/22 01:36:46;;;;;;;22.23;13.48;;;;;;;;;;5038621;28;20067;-83
2023/08/22 01:39:14;;;;;;;17.88;13.25;;;;;;;;;;5020204;28;20123;-83
2023/08/22 01:41:41;;;;;;;19.00;13.00;;;;;;;;;;5022934;28;20041;-83
2023/08/22 01:44:07;;;;;;;20.45;13.98;;;;;;;;;;5022459;28;20055;-83
2023/08/22 01:46:33;;;;;;;18.90;12.90;;;;;;;;;;5006676;28;20098;-83
2023/08/22 01:48:59;;;;;;;18.42;13.68;;;;;;;;;;5008209;28;20076;-82
2023/08/22 01:51:25;;;;;;;18.08;13.82;;;;;;;;;;5037538;28;20037;-82
2023/08/22 01:53:51;;;;;;;13.60;11.35;;;;;;;;;;5015546;28;20488;-82
2023/08/22 01:56:17;;;;;;;16.70;10.85;;;;;;;;;;5019947;28;20064;-82
2023/08/22 01:58:43;;;;;;;16.48;11.30;;;;;;;;;;5001452;28;20044;-83
2023/08/22 02:01:10;;;;;;;17.23;12.00;;;;;;;;;;5003419;28;20061;-83
2023/08/22 02:03:36;;;;;;;17.38;12.48;;;;;;;;;;5017141;28;20053;-82
2023/08/22 02:06:02;;;;;;;14.43;12.93;;;;;;;;;;5015336;28;20036;-82
2023/08/22 02:08:29;;;;;;;17.50;12.50;;;;;;;;;;5021004;28;20099;-82
2023/08/22 02:10:55;;;;;;;14.20;11.45;;;;;;;;;;5017823;28;20037;-82
2023/08/22 02:13:21;;;;;;;15.45;11.68;;;;;;;;;;5017624;28;20048;-82
2023/08/22 02:15:47;;;;;;;13.65;10.95;;;;;;;;;;5007659;28;20210;-83
2023/08/22 02:18:14;;;;;;;17.33;11.38;;;;;;;;;;5018933;28;20106;-83
2023/08/22 02:20:40;;;;;;;17.42;12.40;;;;;;;;;;5037961;28;20049;-83
2023/08/22 02:23:06;;;;;;;13.60;12.00;;;;;;;;;;5020714;28;20037;-82
2023/08/22 02:25:32;;;;;;;17.50;12.73;;;;;;;;;;5002066;28;20131;-83
2023/08/22 02:27:59;;;;;;;19.90;12.73;;;;;;;;;;5019195;28;20056;-82
2023/08/22 02:30:25;;;;;;;18.27;12.23;;;;;;;;;;5037708;28;20043;-82
2023/08/22 02:32:51;;;;;;;14.55;12.10;;;;;;;;;;5018484;28;20041;-82
2023/08/22 02:35:17;;;;;;;15.52;11.38;;;;;;;;;;5017103;28;20049;-82
2023/08/22 02:37:43;;;;;;;16.13;11.25;;;;;;;;;;5039509;28;20049;-82
2023/08/22 02:40:10;;;;;;;13.40;11.00;;;;;;;;;;5022209;28;20041;-83
2023/08/22 02:42:36;;;;;;;19.50;12.07;;;;;;;;;;5019536;28;21633;-81
2023/08/22 02:45:03;;;;;;;16.40;12.32;;;;;;;;;;5014540;28;20059;-82
2023/08/22 02:47:29;;;;;;;13.98;12.48;;;;;;;;;;5008224;28;20070;-82
2023/08/22 02:49:55;;;;;;;15.02;11.98;;;;;;;;;;5015123;28;20048;-82
2023/08/22 02:52:21;;;;;;;14.73;13.23;;;;;;;;;;5015176;28;22244;-81
2023/08/22 02:54:47;;;;;;;16.90;12.98;;;;;;;;;;5014320;28;20052;-81
2023/08/22 02:57:14;;;;;;;17.55;14.30;;;;;;;;;;5018713;28;20083;-82
2023/08/22 02:59:40;;;;;;;17.27;14.07;;;;;;;;;;5038185;28;20048;-82
2023/08/22 03:02:06;;;;;;;22.02;14.75;;;;;;;;;;5014250;28;20052;-82
2023/08/22 03:04:33;;;;;;;16.70;14.25;;;;;;;;;;5036300;28;20137;-82
2023/08/22 03:06:59;;;;;;;17.08;14.02;;;;;;;;;;5018647;28;20075;-82
2023/08/22 03:09:26;;;;;;;14.63;12.65;;;;;;;;;;5026361;28;20048;-82
2023/08/22 03:11:52;;;;;;;16.48;12.73;;;;;;;;;;5007410;28;20055;-82
2023/08/22 03:14:18;;;;;;;16.63;13.20;;;;;;;;;;5019007;28;20489;-82
2023/08/22 03:16:44;;;;;;;18.20;13.27;;;;;;;;;;5035876;28;20043;-82
2023/08/22 03:19:10;;;;;;;18.98;13.48;;;;;;;;;;5019338;28;20048;-82
2023/08/22 03:21:36;;;;;;;16.67;14.98;;;;;;;;;;5003123;28;20053;-82
2023/08/22 03:24:02;;;;;;;17.58;14.65;;;;;;;;;;5001684;28;20080;-83
2023/08/22 03:26:28;;;;;;;17.48;14.48;;;;;;;;;;5020103;28;20095;-82
2023/08/22 03:28:54;;;;;;;18.20;12.88;;;;;;;;;;5017790;28;20052;-82
2023/08/22 03:31:26;;;;;;;16.45;14.13;;;;;;;;;;4998734;28;21294;-82
2023/08/22 03:33:52;;;;;;;17.90;14.65;;;;;;;;;;5018798;28;20173;-82
2023/08/22 03:36:18;;;;;;;17.17;14.55;;;;;;;;;;5015588;28;20045;-82
2023/08/22 03:38:46;;;;;;;15.93;14.32;;;;;;;;;;5015282;28;20125;-83
2023/08/22 03:41:13;;;;;;;20.30;14.63;;;;;;;;;;5017245;28;20045;-82
2023/08/22 03:43:39;;;;;;;16.75;13.75;;;;;;;;;;5035465;28;20037;-82
2023/08/22 03:46:05;;;;;;;18.48;13.52;;;;;;;;;;5017734;28;20037;-82
2023/08/22 03:48:31;;;;;;;13.60;12.40;;;;;;;;;;5001988;28;20115;-82
2023/08/22 03:50:59;;;;;;;14.65;13.20;;;;;;;;;;5034422;28;20044;-83
2023/08/22 03:53:26;;;;;;;14.13;12.63;;;;;;;;;;5017822;28;21554;-83
2023/08/22 03:55:52;;;;;;;12.85;11.55;;;;;;;;;;5021221;28;20117;-83
2023/08/22 03:58:18;;;;;;;13.15;11.85;;;;;;;;;;5003677;28;20037;-82
2023/08/22 04:00:44;;;;;;;11.30;10.18;;;;;;;;;;5020808;28;20040;-81
2023/08/22 04:03:10;;;;;;;11.38;9.70;;;;;;;;;;5018078;28;20146;-82
2023/08/22 04:05:36;;;;;;;8.23;7.40;;;;;;;;;;5035552;28;20417;-82
2023/08/22 04:08:02;;;;;;;8.30;7.47;;;;;;;;;;5033433;28;20041;-82
2023/08/22 04:10:28;;;;;;;8.10;7.00;;;;;;;;;;5012944;28;20041;-82
2023/08/22 04:12:54;;;;;;;8.23;7.53;;;;;;;;;;5011223;28;20040;-83
2023/08/22 04:15:20;;;;;;;8.90;8.13;;;;;;;;;;5036017;28;21206;-83
2023/08/22 04:17:46;;;;;;;8.90;7.47;;;;;;;;;;5017050;28;20049;-83
2023/08/22 04:20:13;;;;;;;7.38;6.65;;;;;;;;;;5017278;28;20044;-83
2023/08/22 04:22:42;;;;;;;8.18;7.47;;;;;;;;;;5016332;28;20045;-82
2023/08/22 04:25:11;;;;;;;7.80;7.10;;;;;;;;;;5034352;28;20041;-83
2023/08/22 04:27:38;;;;;;;8.50;7.78;;;;;;;;;;5037989;28;20056;-83
2023/08/22 04:30:04;;;;;;;9.30;6.95;;;;;;;;;;5021288;28;20033;-83
2023/08/22 04:32:31;;;;;;;7.20;6.35;;;;;;;;;;5020608;28;20044;-82
2023/08/22 04:34:57;;;;;;;8.90;6.95;;;;;;;;;;5007610;28;20576;-82
2023/08/22 04:37:23;;;;;;;8.88;7.43;;;;;;;;;;5042052;28;20098;-83
2023/08/22 04:39:49;;;;;;;9.43;7.65;;;;;;;;;;5020737;28;20103;-83
2023/08/22 04:42:15;;;;;;;9.63;7.93;;;;;;;;;;5034747;28;20104;-82
2023/08/22 04:44:42;;;;;;;10.40;8.68;;;;;;;;;;5036945;28;20045;-82
2023/08/22 04:47:08;;;;;;;9.05;8.07;;;;;;;;;;5002904;28;20045;-83
2023/08/22 04:49:34;;;;;;;11.82;8.88;;;;;;;;;;4987237;28;20155;-81
2023/08/22 04:52:00;;;;;;;10.52;9.05;;;;;;;;;;5033721;28;20048;-82
2023/08/22 04:54:26;;;;;;;8.32;7.38;;;;;;;;;;5017378;28;20049;-82
2023/08/22 04:56:52;;;;;;;7.82;7.03;;;;;;;;;;5020743;28;20056;-82
2023/08/22 04:59:18;;;;;;;6.00;5.47;;;;;;;;;;5025204;28;20041;-81
2023/08/22 05:01:44;;;;;;;6.10;5.32;;;;;;;;;;5053930;28;20646;-81
2023/08/22 05:04:10;;;;;;;7.53;6.35;;;;;;;;;;5034673;28;20057;-81
2023/08/22 05:06:36;;;;;;;12.30;6.80;;;;;;;;;;5053084;28;20727;-81
2023/08/22 05:09:03;;;;;;;8.48;7.40;;;;;;;;;;5024224;28;20032;-83
2023/08/22 05:11:29;;;;;;;16.95;10.43;;;;;;;;;;5005391;28;20042;-81
2023/08/22 05:13:55;;;;;;;17.65;12.98;;;;;;;;;;5021195;28;20121;-80
2023/08/22 05:16:21;;;;;;;20.08;12.35;;;;;;;;;;5000661;28;22342;-82
2023/08/22 05:18:47;;;;;;;20.95;12.65;;;;;;;;;;5005946;28;20146;-82
2023/08/22 05:21:13;;;;;;;19.40;13.07;;;;;;;;;;5040191;28;20044;-81
2023/08/22 05:23:39;;;;;;;21.75;13.98;;;;;;;;;;5017027;28;20083;-82
2023/08/22 05:26:05;;;;;;;19.92;13.80;;;;;;;;;;5023059;28;20037;-81
2023/08/22 05:28:31;;;;;;;15.13;12.23;;;;;;;;;;5025562;28;20049;-82
2023/08/22 05:30:57;;;;;;;13.15;10.68;;;;;;;;;;5021283;28;20637;-81
2023/08/22 05:33:23;;;;;;;14.63;11.23;;;;;;;;;;5022668;28;20044;-82
2023/08/22 05:35:50;;;;;;;15.00;9.40;;;;;;;;;;5004532;28;20075;-83
2023/08/22 05:38:16;;;;;;;16.25;9.35;;;;;;;;;;5038263;28;20045;-83
2023/08/22 05:40:42;;;;;;;17.83;9.00;;;;;;;;;;4995060;28;20060;-83
2023/08/22 05:43:08;;;;;;;13.63;9.93;;;;;;;;;;5044001;28;20059;-84
2023/08/22 05:45:34;;;;;;;17.40;9.40;;;;;;;;;;5023438;28;20114;-83
2023/08/22 05:48:00;;;;;;;19.15;10.38;;;;;;;;;;5041406;28;20128;-83
2023/08/22 05:50:26;;;;;;;13.07;10.25;;;;;;;;;;5021739;28;20613;-83
2023/08/22 05:52:52;;;;;;;16.17;10.73;;;;;;;;;;5038442;28;20044;-83
2023/08/22 05:55:18;;;;;;;19.38;12.93;;;;;;;;;;5020774;28;20055;-82
2023/08/22 05:57:45;;;;;;;21.63;14.15;;;;;;;;;;5008226;28;20598;-84
2023/08/22 06:00:11;;;;;;;15.20;12.10;;;;;;;;;;5008723;28;20091;-83
2023/08/22 06:02:37;;;;;;;25.20;13.15;;;;;;;;;;5035654;28;20506;-83
2023/08/22 06:05:06;;;;;;;21.27;12.10;;;;;;;;;;4993122;28;20114;-83
2023/08/22 06:07:32;;;;;;;173.00;23.65;;;;;;;;;;5002956;28;20068;-83
2023/08/22 06:10:00;;;;;;;17.42;11.65;;;;;;;;;;5008761;28;20175;-82
2023/08/22 06:12:27;;;;;;;20.85;12.25;;;;;;;;;;5017498;28;20049;-84
2023/08/22 06:14:53;;;;;;;27.95;12.40;;;;;;;;;;5018646;28;20065;-83
2023/08/22 06:17:20;;;;;;;33.42;12.25;;;;;;;;;;5023215;28;20080;-82
2023/08/22 06:19:49;;;;;;;17.60;11.57;;;;;;;;;;5023025;28;20780;-83
2023/08/22 06:22:15;;;;;;;23.27;12.95;;;;;;;;;;5018980;28;20056;-82
2023/08/22 06:24:41;;;;;;;19.15;11.80;;;;;;;;;;5020629;28;21149;-82
2023/08/22 06:27:07;;;;;;;21.25;12.75;;;;;;;;;;5001402;28;20041;-82
2023/08/22 06:29:33;;;;;;;20.58;11.10;;;;;;;;;;5016387;28;20530;-83
2023/08/22 06:32:02;;;;;;;20.80;11.38;;;;;;;;;;5016929;28;20440;-82
2023/08/22 06:34:30;;;;;;;14.80;9.82;;;;;;;;;;5017748;28;20064;-82
2023/08/22 06:36:57;;;;;;;18.05;10.70;;;;;;;;;;5003228;28;21702;-83
2023/08/22 06:39:23;;;;;;;20.25;11.07;;;;;;;;;;5036321;28;20067;-82
2023/08/22 06:41:49;;;;;;;17.33;11.35;;;;;;;;;;5020427;28;20555;-83
2023/08/22 06:44:15;;;;;;;18.98;10.98;;;;;;;;;;4998616;28;20087;-84
2023/08/22 06:46:41;;;;;;;18.17;10.45;;;;;;;;;;5018980;28;20045;-82
2023/08/22 06:49:07;;;;;;;19.48;11.05;;;;;;;;;;5020547;28;20041;-82
2023/08/22 06:51:33;;;;;;;16.20;9.82;;;;;;;;;;5019560;28;20045;-82
2023/08/22 06:53:59;;;;;;;26.83;11.45;;;;;;;;;;5037096;28;20076;-82
2023/08/22 06:56:26;;;;;;;23.17;11.27;;;;;;;;;;5020029;28;20438;-82
2023/08/22 06:58:52;;;;;;;17.42;10.95;;;;;;;;;;5038246;28;20887;-83
2023/08/22 07:01:19;;;;;;;20.38;10.05;;;;;;;;;;5008529;28;20100;-83
2023/08/22 07:03:45;;;;;;;17.65;10.30;;;;;;;;;;5017117;28;20119;-83
2023/08/22 07:06:11;;;;;;;14.35;10.13;;;;;;;;;;4998245;28;20069;-83
2023/08/22 07:08:37;;;;;;;20.90;10.07;;;;;;;;;;5016285;28;20505;-83
2023/08/22 07:11:04;;;;;;;17.67;10.18;;;;;;;;;;5013416;28;20045;-83
2023/08/22 07:13:30;;;;;;;16.35;9.68;;;;;;;;;;5013471;28;20045;-83
2023/08/22 07:15:56;;;;;;;17.38;9.65;;;;;;;;;;5015642;28;20098;-83
2023/08/22 07:18:22;;;;;;;14.15;9.43;;;;;;;;;;5001291;28;20083;-83
2023/08/22 07:20:51;;;;;;;13.63;8.52;;;;;;;;;;4997319;28;21749;-82
2023/08/22 07:23:18;;;;;;;16.40;9.25;;;;;;;;;;5015466;28;20044;-81
2023/08/22 07:25:50;;;;;;;13.98;9.52;;;;;;;;;;5014505;28;20044;-82
2023/08/22 07:28:17;;;;;;;15.35;9.77;;;;;;;;;;5015591;28;20048;-84
2023/08/22 07:30:46;;;;;;;13.63;10.07;;;;;;;;;;5014103;28;20094;-82
2023/08/22 07:33:13;;;;;;;18.17;10.00;;;;;;;;;;4996211;28;20132;-82
2023/08/22 07:35:39;;;;;;;16.65;9.43;;;;;;;;;;5013099;28;20152;-82
2023/08/22 07:38:05;;;;;;;13.70;9.07;;;;;;;;;;5019393;28;20075;-82
2023/08/22 07:40:37;;;;;;;11.63;9.15;;;;;;;;;;5003215;28;20041;-82
2023/08/22 07:43:03;;;;;;;15.50;9.40;;;;;;;;;;5019771;28;20076;-83
2023/08/22 07:45:29;;;;;;;18.80;9.48;;;;;;;;;;5019425;28;22132;-83
2023/08/22 07:47:55;;;;;;;14.95;9.25;;;;;;;;;;4988193;28;20114;-83
2023/08/22 07:50:22;;;;;;;21.83;9.43;;;;;;;;;;5019951;28;20045;-82
2023/08/22 07:52:48;;;;;;;13.52;9.00;;;;;;;;;;5002322;28;20524;-84
2023/08/22 07:55:14;;;;;;;14.85;8.25;;;;;;;;;;5020997;28;21517;-81
2023/08/22 07:57:41;;;;;;;16.45;9.00;;;;;;;;;;5008562;28;20052;-83
2023/08/22 08:00:11;;;;;;;14.18;8.68;;;;;;;;;;5016252;28;20045;-83
2023/08/22 08:02:40;;;;;;;12.95;8.68;;;;;;;;;;5015519;28;20080;-83
2023/08/22 08:05:07;;;;;;;10.50;8.45;;;;;;;;;;5016918;28;20045;-82
2023/08/22 08:07:34;;;;;;;14.13;8.15;;;;;;;;;;5014242;28;20045;-83
2023/08/22 08:10:00;;;;;;;10.95;7.53;;;;;;;;;;5014770;28;20050;-83
2023/08/22 08:12:26;;;;;;;12.98;7.75;;;;;;;;;;5016637;28;20124;-83
2023/08/22 08:14:52;;;;;;;10.57;7.78;;;;;;;;;;5026031;28;20082;-83
2023/08/22 08:17:19;;;;;;;10.90;6.97;;;;;;;;;;5031067;28;20471;-82
2023/08/22 08:19:45;;;;;;;14.38;7.45;;;;;;;;;;5023351;28;20533;-83
2023/08/22 08:22:11;;;;;;;12.85;6.65;;;;;;;;;;5020143;28;22091;-83
2023/08/22 08:24:37;;;;;;;17.60;6.75;;;;;;;;;;5018717;28;20060;-82
2023/08/22 08:27:04;;;;;;;26.65;7.25;;;;;;;;;;5014279;28;20702;-83
2023/08/22 08:29:30;;;;;;;16.92;5.32;;;;;;;;;;5015860;28;20775;-83
2023/08/22 08:31:59;;;;;;;19.70;6.50;;;;;;;;;;5013034;28;21146;-83
2023/08/22 08:34:25;;;;;;;7.82;4.50;;;;;;;;;;5015534;28;20041;-83
2023/08/22 08:36:51;;;;;;;6.85;4.07;;;;;;;;;;5011504;28;20164;-83
2023/08/22 08:39:18;;;;;;;9.20;4.00;;;;;;;;;;5012230;28;20387;-84
2023/08/22 08:41:53;;;;;;;8.65;4.60;;;;;;;;;;5013932;28;20049;-84
2023/08/22 08:44:20;;;;;;;7.80;4.80;;;;;;;;;;5011917;28;20041;-83
2023/08/22 08:46:46;;;;;;;8.82;4.45;;;;;;;;;;5013707;28;20073;-83
2023/08/22 08:49:14;;;;;;;6.70;3.90;;;;;;;;;;5013670;28;20120;-83
2023/08/22 08:51:41;;;;;;;7.90;4.30;;;;;;;;;;5001946;28;20041;-84
2023/08/22 08:54:08;;;;;;;12.07;5.55;;;;;;;;;;5013047;28;20041;-82
2023/08/22 08:56:34;;;;;;;9.70;5.70;;;;;;;;;;5014083;28;20041;-83
2023/08/22 08:59:00;;;;;;;7.82;4.85;;;;;;;;;;4997028;28;20068;-87
2023/08/22 09:01:26;;;;;;;7.70;5.03;;;;;;;;;;5003566;28;20049;-85
2023/08/22 09:03:53;;;;;;;9.82;4.93;;;;;;;;;;5016796;28;20057;-84
2023/08/22 09:06:20;;;;;;;8.35;3.97;;;;;;;;;;5014162;28;20059;-85
2023/08/22 09:09:12;;;;;;;10.25;4.00;;;;;;;;;;5002557;28;20823;-86
2023/08/22 09:11:44;;;;;;;8.32;4.68;;;;;;;;;;5015065;28;20470;-84
2023/08/22 09:14:11;;;;;;;12.73;5.13;;;;;;;;;;5015379;28;20501;-78
2023/08/22 09:16:37;;;;;;;37.72;7.72;;;;;;;;;;5000896;28;20429;-83
2023/08/22 09:19:04;;;;;;;13.50;4.43;;;;;;;;;;5003341;28;20301;-76
2023/08/22 09:21:30;;;;;;;13.98;4.43;;;;;;;;;;5019659;28;21171;-79
2023/08/22 09:24:14;;;;;;;10.73;3.92;;;;;;;;;;5019382;28;20045;-79
2023/08/22 09:26:46;;;;;;;6.50;4.20;;;;;;;;;;5017935;28;20135;-76
2023/08/22 09:29:14;;;;;;;8.98;4.30;;;;;;;;;;5016890;28;20045;-77
2023/08/22 09:31:40;;;;;;;13.57;5.13;;;;;;;;;;5015199;28;20045;-71
2023/08/22 09:34:08;;;;;;;10.45;4.20;;;;;;;;;;5016010;28;20085;-72
2023/08/22 09:36:34;;;;;;;7.25;4.15;;;;;;;;;;5016274;28;20505;-72
2023/08/22 09:39:00;;;;;;;7.55;3.72;;;;;;;;;;5015653;28;20045;-72
2023/08/22 09:41:27;;;;;;;13.05;3.47;;;;;;;;;;5015224;28;20072;-72
2023/08/22 09:44:06;;;;;;;23.30;3.67;;;;;;;;;;5015363;28;20042;-73
2023/08/22 09:46:32;;;;;;;9.57;3.22;;;;;;;;;;5016079;28;20044;-70
2023/08/22 09:49:00;;;;;;;8.48;3.42;;;;;;;;;;5012677;28;20052;-70
2023/08/22 09:51:27;;;;;;;8.38;3.28;;;;;;;;;;5018020;28;20041;-76
2023/08/22 09:53:59;;;;;;;10.85;3.92;;;;;;;;;;5019275;28;20076;-74
2023/08/22 09:56:26;;;;;;;9.23;4.03;;;;;;;;;;5021757;28;20041;-75
2023/08/22 09:58:52;;;;;;;9.35;3.88;;;;;;;;;;5018995;28;20107;-75
2023/08/22 10:01:19;;;;;;;12.70;3.63;;;;;;;;;;5021592;28;20052;-75
2023/08/22 10:03:49;;;;;;;7.47;3.45;;;;;;;;;;5031318;28;20080;-74
2023/08/22 10:06:16;;;;;;;12.95;4.22;;;;;;;;;;5021944;28;20136;-77
2023/08/22 10:08:45;;;;;;;5.82;3.08;;;;;;;;;;5038176;28;20040;-74
2023/08/22 10:11:13;;;;;;;5.35;3.90;;;;;;;;;;5037171;28;20534;-75
2023/08/22 10:13:39;;;;;;;21.23;4.03;;;;;;;;;;5021247;28;20487;-71
2023/08/22 10:16:05;;;;;;;11.57;3.40;;;;;;;;;;5039449;28;20059;-74
2023/08/22 10:18:32;;;;;;;14.48;3.67;;;;;;;;;;5036784;28;20049;-72
2023/08/22 10:20:58;;;;;;;5.40;3.80;;;;;;;;;;5037408;28;20052;-74
2023/08/22 10:23:43;;;;;;;7.88;3.90;;;;;;;;;;5019156;28;20046;-71
2023/08/22 10:26:09;;;;;;;10.73;3.17;;;;;;;;;;5039687;28;20040;-72
2023/08/22 10:28:42;;;;;;;4.78;3.40;;;;;;;;;;5032446;28;20044;-72
2023/08/22 10:31:08;;;;;;;9.93;4.43;;;;;;;;;;5036298;28;20336;-72
2023/08/22 10:33:34;;;;;;;3.65;2.90;;;;;;;;;;5033797;28;21598;-72
2023/08/22 10:36:08;;;;;;;5.55;3.47;;;;;;;;;;5036993;28;20045;-72
2023/08/22 10:38:34;;;;;;;;;;;;;;;;;;5036214;28;20171;-72
2023/08/22 10:41:00;;;;;;;8.10;3.67;;;;;;;;;;5035228;28;20352;-72
2023/08/22 10:43:36;;;;;;;4.82;2.65;;;;;;;;;;5030839;28;20045;-72
2023/08/22 10:46:03;;;;;;;2.33;1.73;;;;;;;;;;5031775;28;20053;-72
2023/08/22 10:48:29;;;;;;;6.07;2.50;;;;;;;;;;5032028;28;20044;-72
2023/08/22 10:51:05;;;;;;;11.30;3.72;;;;;;;;;;5033089;28;20067;-72
2023/08/22 10:53:31;;;;;;;8.27;3.92;;;;;;;;;;5035129;28;20103;-72
2023/08/22 10:56:16;;;;;;;4.45;2.88;;;;;;;;;;5036431;28;20032;-72
2023/08/22 10:58:43;;;;;;;8.18;3.28;;;;;;;;;;5014437;28;20041;-72
2023/08/22 11:01:16;;;;;;;3.97;2.53;;;;;;;;;;5018179;28;20063;-72
2023/08/22 11:03:43;;;;;;;7.45;3.22;;;;;;;;;;5034011;28;20090;-72
2023/08/22 11:06:13;;;;;;;6.00;3.28;;;;;;;;;;5032318;28;20614;-72
2023/08/22 11:08:40;;;;;;;9.77;3.45;;;;;;;;;;5034617;28;20044;-72
2023/08/22 11:11:07;;;;;;;4.60;3.03;;;;;;;;;;5034602;28;20653;-72
2023/08/22 11:13:37;;;;;;;10.07;3.05;;;;;;;;;;5036314;28;20029;-72
2023/08/22 11:16:04;;;;;;;5.38;2.40;;;;;;;;;;5021225;28;20049;-72
2023/08/22 11:18:31;;;;;;;7.63;3.25;;;;;;;;;;5029404;28;20049;-73
2023/08/22 11:20:57;;;;;;;8.50;2.70;;;;;;;;;;5032776;28;20048;-73
2023/08/22 11:23:23;;;;;;;5.28;2.60;;;;;;;;;;5033839;28;20044;-74
2023/08/22 11:25:49;;;;;;;23.20;4.53;;;;;;;;;;5016275;28;20045;-72
2023/08/22 11:28:15;;;;;;;5.63;2.60;;;;;;;;;;5033846;28;20040;-72
2023/08/22 11:30:42;;;;;;;4.22;2.42;;;;;;;;;;5033996;28;20041;-72
2023/08/22 11:33:08;;;;;;;8.88;3.20;;;;;;;;;;5033139;28;20119;-72
2023/08/22 11:35:34;;;;;;;4.32;3.13;;;;;;;;;;5033550;28;20044;-73
2023/08/22 11:38:01;;;;;;;5.50;3.47;;;;;;;;;;5014642;28;20545;-72
2023/08/22 11:40:27;;;;;;;5.75;3.17;;;;;;;;;;5034216;28;20155;-72
2023/08/22 11:42:58;;;;;;;5.07;2.42;;;;;;;;;;5033707;28;20045;-72
2023/08/22 11:45:25;;;;;;;6.82;3.03;;;;;;;;;;5033573;28;20120;-72
2023/08/22 11:47:54;;;;;;;6.22;2.70;;;;;;;;;;5032948;28;20049;-72
2023/08/22 11:50:21;;;;;;;4.45;2.55;;;;;;;;;;5016801;28;20537;-72
2023/08/22 11:52:48;;;;;;;4.22;1.90;;;;;;;;;;5031723;28;20740;-72
2023/08/22 11:55:22;;;;;;;4.32;2.42;;;;;;;;;;5030845;28;20048;-72
2023/08/22 11:57:49;;;;;;;5.80;2.78;;;;;;;;;;5014867;28;20574;-72
2023/08/22 12:00:17;;;;;;;6.70;2.92;;;;;;;;;;5034194;28;20098;-73
2023/08/22 12:02:43;;;;;;;5.75;2.13;;;;;;;;;;5014602;28;20057;-72
2023/08/22 12:05:28;;;;;;;7.22;2.60;;;;;;;;;;5033108;28;20075;-72
2023/08/22 12:07:54;;;;;;;9.07;2.60;;;;;;;;;;5035645;28;20059;-71
2023/08/22 12:10:20;;;;;;;6.07;2.85;;;;;;;;;;5033765;28;20049;-71
2023/08/22 12:12:47;;;;;;;5.70;2.40;;;;;;;;;;5033335;28;20048;-72
2023/08/22 12:15:13;;;;;;;6.32;2.22;;;;;;;;;;5035005;28;20124;-72
2023/08/22 12:17:39;;;;;;;3.33;1.83;;;;;;;;;;5031540;28;20040;-72
2023/08/22 12:20:05;;;;;;;3.85;2.08;;;;;;;;;;5035106;28;20052;-71
2023/08/22 12:22:31;;;;;;;6.65;2.70;;;;;;;;;;5030666;28;20044;-71
2023/08/22 12:24:57;;;;;;;4.88;2.30;;;;;;;;;;5034309;28;20550;-72
2023/08/22 12:27:27;;;;;;;4.00;2.55;;;;;;;;;;5036611;28;20045;-72
2023/08/22 12:29:53;;;;;;;3.97;2.13;;;;;;;;;;5032321;28;20134;-72
2023/08/22 12:32:19;;;;;;;3.92;2.33;;;;;;;;;;5017792;28;20091;-72
2023/08/22 12:34:46;;;;;;;4.25;1.70;;;;;;;;;;5018132;28;20500;-72
2023/08/22 12:37:12;;;;;;;4.65;1.92;;;;;;;;;;5033374;28;20416;-73
2023/08/22 12:39:38;;;;;;;10.77;2.35;;;;;;;;;;5033075;28;20040;-73
2023/08/22 12:42:04;;;;;;;3.83;1.60;;;;;;;;;;5032151;28;20097;-73
2023/08/22 12:44:31;;;;;;;7.60;2.28;;;;;;;;;;5025447;28;20481;-73
2023/08/22 12:46:59;;;;;;;5.60;2.70;;;;;;;;;;5028461;28;20060;-73
2023/08/22 12:49:26;;;;;;;13.43;8.02;;;;;;;;;;5034783;28;20040;-73
2023/08/22 12:51:52;;;;;;;8.63;2.47;;;;;;;;;;5017067;28;20056;-73
2023/08/22 12:54:18;;;;;;;3.65;2.00;;;;;;;;;;5037779;28;20072;-72
2023/08/22 12:56:44;;;;;;;5.43;2.00;;;;;;;;;;5038578;28;20555;-73
2023/08/22 12:59:10;;;;;;;5.28;2.40;;;;;;;;;;5037228;28;20101;-73
2023/08/22 13:01:36;;;;;;;6.68;2.03;;;;;;;;;;5039805;28;20040;-73
2023/08/22 13:04:10;;;;;;;2.90;1.90;;;;;;;;;;5018580;28;20084;-73
2023/08/22 13:06:36;;;;;;;6.50;2.22;;;;;;;;;;5036809;28;20084;-73
2023/08/22 13:09:02;;;;;;;3.05;2.20;;;;;;;;;;5036698;28;20126;-73
2023/08/22 13:11:29;;;;;;;8.05;1.88;;;;;;;;;;5037543;28;20047;-73
2023/08/22 13:13:55;;;;;;;3.92;2.00;;;;;;;;;;5038087;28;20040;-73
2023/08/22 13:16:21;;;;;;;3.80;2.17;;;;;;;;;;5036587;28;20036;-73
2023/08/22 13:18:47;;;;;;;5.90;1.92;;;;;;;;;;5041310;28;20060;-73
2023/08/22 13:21:13;;;;;;;3.40;1.92;;;;;;;;;;5042470;28;20547;-73
2023/08/22 13:23:39;;;;;;;7.50;1.85;;;;;;;;;;5042200;28;20049;-73
2023/08/22 13:26:05;;;;;;;3.65;1.50;;;;;;;;;;5042564;28;20358;-73
2023/08/22 13:28:31;;;;;;;3.95;2.00;;;;;;;;;;5018654;28;20037;-73
2023/08/22 13:30:57;;;;;;;6.90;1.90;;;;;;;;;;5038116;28;21731;-73
2023/08/22 13:33:23;;;;;;;3.97;1.67;;;;;;;;;;5035762;28;21678;-73
2023/08/22 13:35:49;;;;;;;4.18;1.80;;;;;;;;;;5037926;28;20048;-73
2023/08/22 13:38:15;;;;;;;5.20;1.67;;;;;;;;;;5035732;28;20098;-73
2023/08/22 13:40:42;;;;;;;6.38;2.50;;;;;;;;;;5018974;28;20362;-72
2023/08/22 13:43:08;;;;;;;7.20;2.47;;;;;;;;;;5038886;28;20221;-72
2023/08/22 13:45:34;;;;;;;3.17;2.00;;;;;;;;;;5019843;28;20098;-73
2023/08/22 13:48:00;;;;;;;3.60;1.58;;;;;;;;;;5036113;28;20041;-73
2023/08/22 13:50:26;;;;;;;2.30;1.52;;;;;;;;;;5037707;28;20496;-73
2023/08/22 13:52:52;;;;;;;2.65;1.60;;;;;;;;;;5031084;28;20075;-72
2023/08/22 13:55:18;;;;;;;3.80;2.10;;;;;;;;;;5022330;28;20504;-72
2023/08/22 13:57:44;;;;;;;2.90;1.95;;;;;;;;;;5038881;28;20037;-73
2023/08/22 14:00:11;;;;;;;4.38;1.85;;;;;;;;;;5037413;28;20048;-74
2023/08/22 14:02:37;;;;;;;4.95;2.03;;;;;;;;;;5034060;28;20127;-74
2023/08/22 14:05:03;;;;;;;5.25;2.35;;;;;;;;;;5014463;28;20761;-73
2023/08/22 14:07:29;;;;;;;5.18;2.40;;;;;;;;;;5037334;28;20782;-73
2023/08/22 14:09:55;;;;;;;4.93;2.47;;;;;;;;;;5033064;28;20037;-73
2023/08/22 14:12:24;;;;;;;4.25;2.30;;;;;;;;;;5034914;28;20076;-73
2023/08/22 14:14:50;;;;;;;6.60;2.63;;;;;;;;;;5034389;28;20814;-74
2023/08/22 14:17:16;;;;;;;4.78;2.75;;;;;;;;;;5033993;28;20150;-72
2023/08/22 14:19:43;;;;;;;6.60;1.83;;;;;;;;;;5035190;28;20167;-73
2023/08/22 14:22:09;;;;;;;2.92;1.80;;;;;;;;;;5034745;28;20415;-72
2023/08/22 14:24:35;;;;;;;4.35;1.85;;;;;;;;;;5013611;28;20119;-73
2023/08/22 14:27:01;;;;;;;4.82;2.33;;;;;;;;;;5028791;28;20044;-73
2023/08/22 14:29:27;;;;;;;4.68;2.10;;;;;;;;;;5034091;28;20179;-73